Time;durP1;ratioP1;P1;durP2;ratioP2;P2;SDS_P1;SDS_P2;PMS_P1;PMS_P2;Temp;Humidity;BMP_temperature;BMP_pressure;BME280_temperature;BME280_humidity;BME280_pressure;Samples;Min_cycle;Max_cycle;Signal;HPM_P1;HPM_P2
2022/01/13 00:04:52;;;;;;;2.90;1.67;;;;;;;18.78;51.91;98603.00;10291448;28;20039;-22
2022/01/13 00:09:52;;;;;;;2.67;1.97;;;;;;;18.65;52.22;98600.94;10290020;28;20576;-23
2022/01/13 00:15:20;;;;;;;2.40;1.50;;;;;;;18.63;52.35;98593.28;10290909;28;20410;-23
2022/01/13 00:20:59;;;;;;;1.98;1.45;;;;;;;18.68;52.14;98599.34;10290634;28;20457;-22
2022/01/13 00:25:56;;;;;;;2.08;1.88;;;;;;;18.72;51.60;98600.28;10291287;28;20043;-22
2022/01/13 00:30:58;;;;;;;3.50;1.83;;;;;;;18.77;51.71;98601.28;10290578;28;20409;-22
2022/01/13 00:36:00;;;;;;;2.20;1.63;;;;;;;18.78;51.91;98613.16;10290640;28;20144;-23
2022/01/13 00:41:00;;;;;;;2.58;1.92;;;;;;;18.75;51.73;98613.09;10290600;28;20545;-23
2022/01/13 00:46:01;;;;;;;2.30;1.98;;;;;;;18.79;51.87;98617.41;10289460;28;20121;-23
2022/01/13 00:51:01;;;;;;;3.13;1.80;;;;;;;18.78;51.81;98628.38;10303962;28;20041;-22
2022/01/13 00:56:02;;;;;;;3.25;1.60;;;;;;;18.75;51.78;98623.25;10289885;28;20330;-23
2022/01/13 01:01:04;;;;;;;2.42;1.63;;;;;;;18.72;52.06;98633.28;10289464;28;20113;-22
2022/01/13 01:06:05;;;;;;;2.60;1.80;;;;;;;18.66;52.17;98628.88;10288642;28;20458;-22
2022/01/13 01:11:06;;;;;;;3.17;1.90;;;;;;;18.67;52.15;98639.91;10289337;28;20042;-22
2022/01/13 01:16:09;;;;;;;1.95;1.40;;;;;;;18.71;51.85;98652.75;10288563;28;20465;-23
2022/01/13 01:31:48;;;;;;;4.05;2.33;;;;;;;18.72;51.75;98668.81;10308019;28;20129;-23
2022/01/13 01:36:49;;;;;;;2.28;1.75;;;;;;;18.74;51.86;98684.97;10288362;28;20058;-22
2022/01/13 01:41:51;;;;;;;1.45;1.35;;;;;;;18.75;51.82;98686.69;10287896;28;20478;-23
2022/01/13 01:46:52;;;;;;;2.10;1.40;;;;;;;18.75;51.80;98684.16;10287204;28;20047;-22
2022/01/13 01:51:59;;;;;;;2.47;1.67;;;;;;;18.72;51.89;98689.97;10287456;28;20465;-23
2022/01/13 01:57:00;;;;;;;2.80;1.45;;;;;;;18.63;51.84;98678.69;10287570;28;20516;-22
2022/01/13 02:02:00;;;;;;;3.25;1.80;;;;;;;18.68;51.87;98684.78;10287367;28;20057;-22
2022/01/13 02:07:04;;;;;;;2.38;1.70;;;;;;;18.70;51.86;98675.50;10286348;28;20039;-22
2022/01/13 02:12:08;;;;;;;1.38;1.20;;;;;;;18.70;51.77;98666.25;10287737;28;20118;-22
2022/01/13 02:17:14;;;;;;;2.03;1.52;;;;;;;18.72;51.79;98671.34;10286312;28;20039;-23
2022/01/13 02:22:14;;;;;;;1.88;1.20;;;;;;;18.72;51.57;98678.97;10286500;28;20118;-22
2022/01/13 02:27:15;;;;;;;3.70;1.40;;;;;;;18.71;51.68;98660.34;10286149;28;20031;-22
2022/01/13 02:32:16;;;;;;;3.13;1.20;;;;;;;18.71;51.81;98673.03;10286982;28;20637;-23
2022/01/13 02:37:16;;;;;;;1.45;1.35;;;;;;;18.71;51.70;98662.88;10287013;28;20402;-22
2022/01/13 02:42:16;;;;;;;1.58;1.42;;;;;;;18.73;51.30;98663.78;10286890;28;20528;-22
2022/01/13 02:47:21;;;;;;;2.22;1.50;;;;;;;18.67;51.65;98671.22;10286899;28;20035;-22
2022/01/13 02:52:21;;;;;;;2.25;1.15;;;;;;;18.58;51.76;98672.63;10286395;28;20041;-22
2022/01/13 02:57:22;;;;;;;2.13;1.63;;;;;;;18.63;51.85;98684.63;10286367;28;20406;-22
2022/01/13 03:02:29;;;;;;;1.13;1.03;;;;;;;18.69;51.61;98684.81;10286646;28;20394;-22
2022/01/13 03:07:33;;;;;;;1.50;1.33;;;;;;;18.70;51.54;98686.53;10286646;28;20031;-22
2022/01/13 03:12:37;;;;;;;3.53;1.77;;;;;;;18.68;51.70;98688.16;10288045;28;20142;-22
2022/01/13 03:17:37;;;;;;;1.52;1.30;;;;;;;18.69;51.61;98689.03;10293372;28;20462;-22
2022/01/13 03:22:38;;;;;;;3.38;1.40;;;;;;;18.64;51.64;98681.28;10293156;28;20105;-22
2022/01/13 03:27:40;;;;;;;2.22;1.20;;;;;;;18.68;51.53;98672.94;10292549;28;20043;-22
2022/01/13 03:32:40;;;;;;;1.70;1.25;;;;;;;18.71;51.46;98655.28;10292314;28;20453;-22
2022/01/13 03:37:41;;;;;;;3.40;1.87;;;;;;;18.70;51.48;98647.59;10292203;28;20037;-22
2022/01/13 03:42:41;;;;;;;2.22;2.03;;;;;;;18.65;51.64;98656.75;10292193;28;20283;-23
2022/01/13 03:47:42;;;;;;;3.00;1.27;;;;;;;18.64;51.74;98644.88;10292128;28;20241;-22
2022/01/13 03:53:04;;;;;;;2.07;1.10;;;;;;;18.70;51.55;98642.53;10291715;28;20058;-23
2022/01/13 03:58:45;;;;;;;2.08;1.55;;;;;;;18.69;51.35;98636.63;10291520;28;20034;-22
2022/01/13 04:03:46;;;;;;;2.65;1.50;;;;;;;18.68;51.57;98637.41;10291318;28;20065;-22
2022/01/13 04:08:49;;;;;;;2.03;1.10;;;;;;;18.71;51.31;98631.56;10291627;28;20509;-22
2022/01/13 04:19:01;;;;;;;2.37;1.40;;;;;;;18.72;51.20;98628.19;10291096;28;20062;-22
2022/01/13 04:24:06;;;;;;;;;;;;;;;18.69;51.24;98623.06;10290250;28;20490;-23
2022/01/13 04:34:09;;;;;;;2.38;1.73;;;;;;;18.62;51.33;98606.81;10291207;28;20031;-22
2022/01/13 04:39:11;;;;;;;2.47;1.30;;;;;;;18.58;51.52;98614.28;10290003;28;20057;-22
2022/01/13 04:44:15;;;;;;;1.05;0.93;;;;;;;18.64;51.03;98616.97;10290636;28;20125;-22
2022/01/13 04:49:18;;;;;;;1.35;1.13;;;;;;;18.64;51.32;98619.50;10289715;28;20118;-23
2022/01/13 04:54:19;;;;;;;6.10;1.30;;;;;;;18.63;51.54;98627.94;10292188;28;20125;-22
2022/01/13 04:59:19;;;;;;;2.33;1.27;;;;;;;18.65;51.29;98628.84;10288595;28;20038;-22
2022/01/13 05:04:21;;;;;;;2.53;1.77;;;;;;;18.71;51.28;98616.34;10288849;28;20121;-22
2022/01/13 05:09:21;;;;;;;3.88;1.05;;;;;;;18.63;51.25;98610.19;10289733;28;20286;-22
2022/01/13 05:14:21;;;;;;;1.33;1.13;;;;;;;18.71;51.57;98619.75;10288727;28;20489;-23
2022/01/13 05:19:29;;;;;;;2.07;1.30;;;;;;;18.81;51.20;98623.41;10288596;28;20293;-23
2022/01/13 05:24:29;;;;;;;4.32;1.52;;;;;;;18.86;51.02;98634.56;10288394;28;20282;-22
2022/01/13 05:29:30;;;;;;;2.33;1.40;;;;;;;18.77;50.85;98634.28;10287807;28;20557;-22
2022/01/13 05:34:31;;;;;;;1.17;0.90;;;;;;;18.79;50.71;98630.97;10287969;28;20376;-22
2022/01/13 05:39:31;;;;;;;2.03;1.30;;;;;;;18.83;50.58;98637.84;10288332;28;20089;-22
2022/01/13 05:44:38;;;;;;;1.90;1.47;;;;;;;17.29;48.13;98637.81;10287599;28;20317;-23
2022/01/13 05:49:41;;;;;;;3.30;2.80;;;;;;;15.19;38.85;98633.59;10286082;28;20373;-22
2022/01/13 05:54:41;;;;;;;6.28;2.35;;;;;;;17.57;42.72;98643.06;10302425;28;20061;-21
2022/01/13 05:59:41;;;;;;;6.93;2.03;;;;;;;18.15;43.61;98652.63;10312417;28;20464;-21
2022/01/13 06:04:42;;;;;;;2.90;1.60;;;;;;;18.44;44.95;98648.50;10286086;28;20296;-21
2022/01/13 06:09:43;;;;;;;4.27;1.70;;;;;;;18.67;45.31;98645.84;10287140;28;20105;-21
2022/01/13 06:14:43;;;;;;;5.05;1.70;;;;;;;18.84;46.41;98656.50;10286727;28;20039;-21
2022/01/13 06:19:43;;;;;;;4.67;2.00;;;;;;;18.98;46.53;98652.66;10286278;28;20035;-21
2022/01/13 06:24:44;;;;;;;6.13;2.10;;;;;;;19.03;46.45;98661.28;10287603;28;20757;-21
2022/01/13 06:29:44;;;;;;;6.47;2.27;;;;;;;19.05;44.77;98657.09;10286346;28;20413;-21
2022/01/13 06:34:44;;;;;;;4.67;3.00;;;;;;;16.04;41.96;98659.97;10286704;28;20502;-21
2022/01/13 06:39:46;;;;;;;4.03;3.13;;;;;;;17.97;41.14;98657.13;10285229;28;20289;-21
2022/01/13 06:44:46;;;;;;;5.35;2.25;;;;;;;18.37;41.51;98650.00;10284700;28;20377;-21
2022/01/13 06:49:46;;;;;;;4.10;1.97;;;;;;;18.60;40.99;98658.31;10291216;28;20038;-21
2022/01/13 06:54:48;;;;;;;3.47;2.22;;;;;;;18.70;40.93;98655.22;10294233;28;20039;-21
2022/01/13 06:59:48;;;;;;;4.72;2.72;;;;;;;18.35;37.96;98665.97;10293821;28;20035;-21
2022/01/13 07:04:49;;;;;;;6.70;3.47;;;;;;;18.23;37.49;98663.88;10294016;28;20043;-21
2022/01/13 07:09:49;;;;;;;32.23;4.63;;;;;;;18.45;41.94;98678.13;10293773;28;20294;-22
2022/01/13 07:14:49;;;;;;;13.20;4.40;;;;;;;18.49;40.65;98680.78;10295668;28;20047;-22
2022/01/13 07:19:53;;;;;;;12.00;5.00;;;;;;;18.55;41.30;98686.06;10295103;28;20113;-21
2022/01/13 07:24:53;;;;;;;18.90;5.30;;;;;;;18.44;39.27;98689.97;10293565;28;20301;-22
2022/01/13 07:29:54;;;;;;;15.02;6.28;;;;;;;18.57;44.07;98691.19;10293975;28;20672;-22
2022/01/13 07:34:54;;;;;;;14.77;6.53;;;;;;;18.66;44.96;98694.00;10294229;28;20039;-21
2022/01/13 07:39:55;;;;;;;12.57;8.07;;;;;;;18.70;45.71;98700.88;10293981;28;20073;-21
2022/01/13 07:44:55;;;;;;;19.45;7.78;;;;;;;18.72;46.20;98682.38;10307607;28;20034;-22
2022/01/13 07:49:55;;;;;;;18.10;8.67;;;;;;;18.75;46.29;98691.75;10298240;28;20045;-21
2022/01/13 07:54:56;;;;;;;14.03;8.20;;;;;;;18.73;46.70;98696.78;10293988;28;20049;-21
2022/01/13 07:59:56;;;;;;;15.77;8.93;;;;;;;18.72;46.70;98689.09;10292625;28;20286;-21
2022/01/13 08:04:57;;;;;;;12.40;7.78;;;;;;;18.74;46.91;98687.50;10293451;28;20050;-21
2022/01/13 08:09:57;;;;;;;14.33;7.30;;;;;;;18.86;46.45;98686.19;10293463;28;20493;-21
2022/01/13 08:14:58;;;;;;;18.13;10.05;;;;;;;18.83;46.72;98685.22;10292889;28;20388;-22
2022/01/13 08:19:58;;;;;;;17.35;9.48;;;;;;;18.80;47.04;98677.50;10292632;28;20498;-22
2022/01/13 08:24:59;;;;;;;20.50;11.77;;;;;;;18.71;47.13;98672.16;10293069;28;20552;-22
2022/01/13 08:29:59;;;;;;;24.88;13.60;;;;;;;18.69;47.34;98664.53;10292353;28;20301;-22
2022/01/13 08:35:00;;;;;;;29.40;15.67;;;;;;;18.62;47.44;98662.63;10291593;28;20113;-22
2022/01/13 08:40:05;;;;;;;31.58;17.45;;;;;;;18.73;47.52;98666.31;10291072;28;20369;-22
2022/01/13 08:45:09;;;;;;;40.60;22.37;;;;;;;18.66;46.87;98672.03;10290331;28;20449;-22
2022/01/13 08:50:10;;;;;;;33.50;18.05;;;;;;;18.67;47.52;98652.59;10289899;28;20038;-22
2022/01/13 08:55:11;;;;;;;36.47;19.77;;;;;;;18.73;47.17;98660.38;10289895;28;20042;-22
2022/01/13 09:00:12;;;;;;;39.20;18.95;;;;;;;18.86;47.67;98677.69;10290333;28;20039;-21
2022/01/13 09:05:14;;;;;;;23.73;11.23;;;;;;;18.35;45.12;98681.19;10289798;28;20105;-21
2022/01/13 09:10:16;;;;;;;28.85;16.67;;;;;;;18.87;46.41;98675.22;10289036;28;20031;-22
2022/01/13 09:15:31;;;;;;;30.67;16.05;;;;;;;19.02;47.02;98690.03;10288396;28;20125;-21
2022/01/13 09:20:32;;;;;;;39.00;18.40;;;;;;;19.17;46.77;98695.56;10288491;28;20043;-21
2022/01/13 09:25:33;;;;;;;31.40;15.80;;;;;;;19.34;46.64;98699.47;10289412;28;20031;-21
2022/01/13 09:30:34;;;;;;;31.48;16.65;;;;;;;19.41;46.44;98707.28;10288993;28;20485;-22
2022/01/13 09:35:35;;;;;;;23.95;14.65;;;;;;;19.43;46.60;98700.56;10289982;28;20033;-21
2022/01/13 09:40:35;;;;;;;26.83;15.23;;;;;;;19.50;46.66;98694.81;10290103;28;20045;-21
2022/01/13 09:45:36;;;;;;;39.00;16.08;;;;;;;19.39;46.84;98697.88;10289290;28;20402;-21
2022/01/13 09:50:38;;;;;;;29.35;15.95;;;;;;;19.41;46.96;98686.13;10287661;28;20541;-22
2022/01/13 09:55:44;;;;;;;29.08;16.13;;;;;;;19.44;46.84;98686.19;10288162;28;20486;-21
2022/01/13 10:00:45;;;;;;;27.90;14.70;;;;;;;19.42;46.74;98682.75;10287606;28;20042;-21
2022/01/13 10:05:55;;;;;;;26.98;15.13;;;;;;;19.38;46.92;98673.31;10287428;28;20101;-21
2022/01/13 10:10:56;;;;;;;26.23;14.75;;;;;;;19.37;47.16;98674.13;10287647;28;20062;-21
2022/01/13 10:21:19;;;;;;;25.67;15.38;;;;;;;19.43;47.44;98675.16;10289001;28;20117;-21
2022/01/13 10:26:20;;;;;;;30.52;14.25;;;;;;;19.41;47.05;98671.72;10297320;28;20039;-21
2022/01/13 10:31:20;;;;;;;26.10;13.93;;;;;;;19.46;46.18;98664.22;10296529;28;20073;-21
2022/01/13 10:36:20;;;;;;;22.67;13.00;;;;;;;19.47;45.72;98658.31;10296606;28;20038;-21
2022/01/13 10:42:14;;;;;;;20.48;11.45;;;;;;;19.55;44.67;98656.84;10299853;28;20093;-21
2022/01/13 10:47:04;;;;;;;21.35;12.70;;;;;;;19.62;46.33;98648.56;10300450;28;20054;-21
2022/01/13 10:52:26;;;;;;;21.15;12.90;;;;;;;19.67;46.83;98650.38;10304427;28;20089;-21
2022/01/13 10:57:28;;;;;;;24.08;12.07;;;;;;;19.67;46.51;98639.38;10290538;28;20075;-21
2022/01/13 11:02:28;;;;;;;20.52;12.18;;;;;;;19.60;47.18;98619.72;10298024;28;20047;-20
2022/01/13 11:07:30;;;;;;;21.33;12.02;;;;;;;19.76;47.17;98634.53;10316389;28;20042;-21
2022/01/13 11:12:41;;;;;;;23.75;11.80;;;;;;;19.76;47.50;98639.63;10302022;28;20096;-21
2022/01/13 11:17:43;;;;;;;18.95;11.23;;;;;;;19.82;46.83;98634.66;10329372;28;20038;-21
2022/01/13 11:22:47;;;;;;;15.80;9.68;;;;;;;19.86;47.02;98636.47;10301114;28;20043;-21
2022/01/13 11:27:48;;;;;;;21.00;10.63;;;;;;;19.83;45.49;98633.88;10293089;28;20035;-21
2022/01/13 11:32:48;;;;;;;24.53;10.87;;;;;;;20.00;46.93;98624.97;10292576;28;20042;-21
2022/01/13 11:37:50;;;;;;;21.17;9.07;;;;;;;20.07;47.05;98621.75;10292465;28;20602;-21
2022/01/13 11:42:52;;;;;;;18.05;9.68;;;;;;;20.08;46.76;98615.88;10292539;28;20042;-21
2022/01/13 11:48:12;;;;;;;16.02;9.40;;;;;;;20.12;46.50;98615.13;10291672;28;20046;-21
2022/01/13 11:53:23;;;;;;;15.32;9.13;;;;;;;20.11;46.77;98614.25;10291962;28;20035;-21
2022/01/13 11:58:31;;;;;;;17.05;9.27;;;;;;;20.14;46.95;98627.06;10292810;28;20441;-21
2022/01/13 12:03:33;;;;;;;21.02;9.35;;;;;;;20.17;46.50;98626.28;10293514;28;20038;-22
2022/01/13 12:08:51;;;;;;;16.27;9.07;;;;;;;20.22;46.54;98622.13;10290885;28;20038;-21
2022/01/13 12:13:52;;;;;;;20.25;10.02;;;;;;;20.27;46.63;98615.47;10293847;28;20060;-21
2022/01/13 12:19:02;;;;;;;16.48;9.60;;;;;;;20.27;46.65;98603.59;10290656;28;20027;-21
2022/01/13 12:24:04;;;;;;;20.17;9.43;;;;;;;20.22;46.02;98601.78;10290817;28;20034;-21
2022/01/13 12:29:12;;;;;;;20.10;9.98;;;;;;;20.09;46.79;98599.78;10290012;28;20038;-21
2022/01/13 12:34:29;;;;;;;16.52;9.75;;;;;;;19.92;47.32;98590.88;10290547;28;20026;-21
2022/01/13 12:39:30;;;;;;;16.00;8.77;;;;;;;19.90;47.95;98590.84;10289885;28;20557;-21
2022/01/13 12:49:50;;;;;;;13.07;9.00;;;;;;;19.79;48.07;98577.00;10289239;28;20057;-21
2022/01/13 12:54:53;;;;;;;15.80;9.13;;;;;;;19.77;47.40;98573.53;10289868;28;20042;-21
2022/01/13 12:59:58;;;;;;;14.00;9.82;;;;;;;19.77;48.05;98554.91;10288856;28;20114;-21
2022/01/13 13:04:58;;;;;;;16.83;9.50;;;;;;;19.85;48.37;98568.66;10289179;28;20042;-21
2022/01/13 13:10:04;;;;;;;14.57;8.57;;;;;;;19.86;47.86;98572.94;10289612;28;20401;-23
2022/01/13 13:20:36;;;;;;;20.40;9.65;;;;;;;19.96;48.68;98567.22;10289202;28;20401;-21
2022/01/13 13:25:44;;;;;;;15.45;9.35;;;;;;;19.92;48.86;98568.00;10289680;28;20034;-20
2022/01/13 13:30:47;;;;;;;15.30;10.52;;;;;;;19.91;48.86;98566.28;10288569;28;20428;-21
2022/01/13 13:35:58;;;;;;;17.80;9.38;;;;;;;19.89;49.16;98573.00;10288447;28;20057;-21
2022/01/13 13:40:58;;;;;;;17.65;9.68;;;;;;;19.88;49.22;98561.09;10288191;28;20038;-21
2022/01/13 13:46:00;;;;;;;14.97;8.97;;;;;;;19.91;49.50;98563.75;10288967;28;20045;-21
2022/01/13 13:51:01;;;;;;;12.57;8.77;;;;;;;19.93;49.31;98562.09;10288165;28;20357;-21
2022/01/13 13:56:03;;;;;;;12.15;8.55;;;;;;;19.92;48.14;98560.38;10287721;28;20054;-21
2022/01/13 14:01:06;;;;;;;13.30;8.65;;;;;;;19.93;48.66;98559.53;10287317;28;20039;-21
2022/01/13 14:06:07;;;;;;;12.85;8.15;;;;;;;19.92;48.73;98557.81;10287717;28;20129;-21
2022/01/13 14:11:09;;;;;;;14.43;8.00;;;;;;;19.88;48.53;98550.94;10287514;28;20074;-21
2022/01/13 14:16:09;;;;;;;20.75;10.82;;;;;;;19.90;49.00;98551.81;10287608;28;20057;-21
2022/01/13 14:21:09;;;;;;;13.15;7.95;;;;;;;19.88;49.22;98550.94;10286856;28;20037;-21
2022/01/13 14:26:12;;;;;;;13.60;8.47;;;;;;;19.91;49.06;98543.41;10286872;28;20042;-21
2022/01/13 14:31:12;;;;;;;12.77;9.02;;;;;;;19.91;48.91;98543.41;10286918;28;20378;-21
2022/01/13 14:36:20;;;;;;;15.05;9.18;;;;;;;19.90;49.23;98539.09;10286789;28;20031;-21
2022/01/13 14:41:37;;;;;;;11.90;7.80;;;;;;;19.93;49.38;98541.75;10286947;28;20390;-21
2022/01/13 14:46:39;;;;;;;21.58;8.85;;;;;;;19.92;49.45;98534.94;10286387;28;20027;-21
2022/01/13 14:51:43;;;;;;;13.55;8.48;;;;;;;19.95;49.14;98535.00;10286645;28;20069;-21
2022/01/13 14:56:46;;;;;;;28.75;9.18;;;;;;;19.99;51.25;98526.59;10286280;28;20039;-21
2022/01/13 15:01:47;;;;;;;18.33;8.90;;;;;;;19.95;49.90;98519.75;10286019;28;20045;-21
2022/01/13 15:06:47;;;;;;;15.60;8.80;;;;;;;19.93;50.27;98523.94;10286147;28;20383;-21
2022/01/13 15:11:49;;;;;;;21.02;13.75;;;;;;;18.71;46.80;98510.63;10293765;28;20498;-21
2022/01/13 15:16:49;;;;;;;17.63;10.00;;;;;;;19.30;45.87;98535.97;10291856;28;20497;-21
2022/01/13 15:21:49;;;;;;;17.95;8.70;;;;;;;19.49;46.52;98529.66;10293063;28;20046;-21
2022/01/13 15:26:50;;;;;;;11.60;7.73;;;;;;;19.58;46.97;98524.81;10293042;28;20037;-21
2022/01/13 15:31:50;;;;;;;15.85;7.78;;;;;;;19.62;47.36;98524.03;10292893;28;20361;-21
2022/01/13 15:36:51;;;;;;;13.03;7.00;;;;;;;19.66;47.28;98520.78;10292428;28;20035;-21
2022/01/13 15:41:51;;;;;;;12.43;7.27;;;;;;;19.71;47.82;98524.25;10292749;28;20038;-21
2022/01/13 15:46:51;;;;;;;11.17;7.37;;;;;;;19.77;47.70;98519.34;10292357;28;20035;-21
2022/01/13 15:51:52;;;;;;;14.15;6.47;;;;;;;19.77;48.11;98514.25;10292345;28;20432;-21
2022/01/13 15:56:52;;;;;;;11.10;7.18;;;;;;;19.72;47.92;98511.59;10292037;28;20084;-21
2022/01/13 16:01:53;;;;;;;13.65;7.30;;;;;;;19.68;47.94;98496.25;10292562;28;20038;-21
2022/01/13 16:06:53;;;;;;;11.13;7.13;;;;;;;19.63;47.96;98490.19;10291283;28;20514;-21
2022/01/13 16:11:54;;;;;;;11.07;7.07;;;;;;;19.51;47.97;98474.66;10292925;28;20637;-17
2022/01/13 16:16:54;;;;;;;12.02;7.18;;;;;;;19.65;48.07;98511.41;10291045;28;20105;-21
2022/01/13 16:21:55;;;;;;;9.70;6.55;;;;;;;19.64;47.50;98520.72;10291289;28;20556;-20
2022/01/13 16:26:55;;;;;;;15.63;6.80;;;;;;;19.66;47.93;98518.22;10290528;28;20157;-21
2022/01/13 16:31:56;;;;;;;10.10;7.03;;;;;;;19.66;47.85;98521.59;10291285;28;20038;-21
2022/01/13 16:36:56;;;;;;;8.30;6.33;;;;;;;19.68;47.72;98521.66;10290108;28;20062;-21
2022/01/13 16:42:01;;;;;;;9.17;6.43;;;;;;;19.69;47.25;98510.66;10290662;28;20030;-21
2022/01/13 16:47:05;;;;;;;11.90;7.45;;;;;;;19.72;47.54;98528.50;10290411;28;20070;-21
2022/01/13 16:52:07;;;;;;;9.43;6.93;;;;;;;19.67;47.56;98522.47;10289709;28;20097;-21
2022/01/13 16:57:09;;;;;;;17.10;7.18;;;;;;;19.76;48.24;98510.00;10289513;28;20544;-21
2022/01/13 17:02:09;;;;;;;11.65;7.72;;;;;;;19.62;47.02;98503.72;10289959;28;20063;-21
2022/01/13 17:07:10;;;;;;;9.20;7.00;;;;;;;19.64;47.59;98517.31;10289752;28;20073;-21
2022/01/13 17:12:10;;;;;;;13.35;6.63;;;;;;;19.62;47.95;98504.59;10289851;28;20422;-20
2022/01/13 17:17:10;;;;;;;12.23;5.63;;;;;;;19.62;48.01;98498.63;10288927;28;20039;-21
2022/01/13 17:22:11;;;;;;;8.97;5.80;;;;;;;19.64;48.06;98502.06;10288985;28;20118;-21
2022/01/13 17:27:14;;;;;;;10.15;5.70;;;;;;;19.68;47.28;98491.16;10288768;28;20046;-21
2022/01/13 17:32:14;;;;;;;6.35;5.07;;;;;;;19.70;47.57;98489.50;10288196;28;20046;-21
2022/01/13 17:37:15;;;;;;;7.70;5.93;;;;;;;19.53;48.23;98473.00;10288143;28;20039;-21
2022/01/13 17:42:17;;;;;;;8.63;5.70;;;;;;;19.62;47.97;98498.63;10288248;28;20297;-21
2022/01/13 17:47:18;;;;;;;9.13;5.40;;;;;;;19.62;48.05;98503.72;10288033;28;20042;-21
2022/01/13 17:52:20;;;;;;;7.28;5.22;;;;;;;19.62;48.35;98508.78;10288224;28;20243;-20
2022/01/13 17:57:20;;;;;;;10.75;5.82;;;;;;;19.64;48.12;98522.38;10287527;28;20037;-21
2022/01/13 18:02:21;;;;;;;11.20;6.93;;;;;;;19.65;47.63;98504.66;10288091;28;20043;-21
2022/01/13 18:07:21;;;;;;;9.82;5.50;;;;;;;19.66;47.62;98516.53;10287055;28;20545;-21
2022/01/13 18:12:24;;;;;;;14.98;8.68;;;;;;;19.47;45.81;98518.59;10287575;28;20038;-21
2022/01/13 18:17:24;;;;;;;10.38;6.60;;;;;;;19.68;47.20;98516.56;10286718;28;20027;-21
2022/01/13 18:22:25;;;;;;;10.67;6.53;;;;;;;19.70;47.53;98522.53;10287728;28;20489;-21
2022/01/13 18:27:25;;;;;;;10.35;6.75;;;;;;;19.68;47.58;98521.66;10286571;28;20497;-21
2022/01/13 18:32:26;;;;;;;11.43;6.53;;;;;;;19.70;48.00;98532.72;10287256;28;20050;-21
2022/01/13 18:37:29;;;;;;;10.18;5.88;;;;;;;19.71;48.28;98534.44;10286626;28;20165;-21
2022/01/13 18:42:36;;;;;;;7.80;5.95;;;;;;;19.68;47.91;98534.38;10286877;28;20112;-21
2022/01/13 18:47:37;;;;;;;9.82;6.28;;;;;;;19.74;48.65;98529.41;10294462;28;20178;-21
2022/01/13 18:52:38;;;;;;;8.63;5.38;;;;;;;19.74;48.75;98519.22;10318664;28;20046;-21
2022/01/13 18:57:38;;;;;;;13.80;10.93;;;;;;;19.51;47.11;98516.16;10321083;28;20038;-21
2022/01/13 19:02:39;;;;;;;11.47;6.27;;;;;;;19.68;48.52;98529.28;10308514;28;20041;-21
2022/01/13 19:07:40;;;;;;;11.90;6.57;;;;;;;19.78;48.80;98519.38;10294156;28;20294;-21
2022/01/13 19:12:42;;;;;;;8.32;6.28;;;;;;;19.77;48.32;98515.09;10294678;28;20042;-21
2022/01/13 19:17:54;;;;;;;11.73;6.53;;;;;;;19.73;48.47;98517.53;10293152;28;20043;-20
2022/01/13 19:22:57;;;;;;;12.38;6.22;;;;;;;19.72;48.40;98515.81;10302970;28;20073;-21
2022/01/13 19:28:01;;;;;;;9.70;7.05;;;;;;;19.69;48.14;98510.66;10311153;28;20034;-22
2022/01/13 19:33:02;;;;;;;9.15;6.80;;;;;;;19.64;47.81;98512.22;10314225;28;20049;-21
2022/01/13 19:38:03;;;;;;;9.02;5.97;;;;;;;19.64;48.02;98523.25;10298105;28;20552;-21
2022/01/13 19:43:03;;;;;;;8.60;5.75;;;;;;;19.68;48.21;98524.19;10297857;28;20031;-22
2022/01/13 19:48:05;;;;;;;7.50;5.90;;;;;;;19.68;47.93;98508.94;10292037;28;20039;-21
2022/01/13 19:53:14;;;;;;;14.82;7.97;;;;;;;19.71;46.94;98504.81;10292510;28;20078;-21
2022/01/13 19:58:15;;;;;;;11.75;7.63;;;;;;;19.89;48.07;98524.69;10313042;28;20046;-22
2022/01/13 20:03:15;;;;;;;13.50;7.80;;;;;;;19.83;47.73;98514.41;10307408;28;20101;-21
2022/01/13 20:08:16;;;;;;;11.80;7.07;;;;;;;19.88;48.30;98513.69;10287532;28;20127;-21
2022/01/13 20:13:17;;;;;;;10.88;7.28;;;;;;;19.72;48.38;98486.19;10287257;28;20042;-21
2022/01/13 20:18:17;;;;;;;15.20;6.15;;;;;;;19.80;48.26;98515.19;10287103;28;20494;-22
2022/01/13 20:23:18;;;;;;;8.90;6.20;;;;;;;19.81;48.15;98519.44;10286905;28;20038;-22
2022/01/13 20:28:19;;;;;;;9.02;5.65;;;;;;;19.76;48.48;98513.38;10286811;28;20046;-21
2022/01/13 20:33:20;;;;;;;9.95;6.00;;;;;;;19.72;48.62;98505.63;10287806;28;20120;-21
2022/01/13 20:38:20;;;;;;;7.57;5.60;;;;;;;19.75;47.98;98503.19;10286414;28;20098;-22
2022/01/13 20:43:21;;;;;;;9.07;5.82;;;;;;;19.73;48.49;98508.22;10305650;28;20038;-22
2022/01/13 20:48:22;;;;;;;7.65;5.97;;;;;;;19.81;48.45;98509.28;10325157;28;20072;-21
2022/01/13 20:53:22;;;;;;;9.98;6.05;;;;;;;19.81;48.59;98504.19;10291572;28;20234;-20
2022/01/13 20:58:23;;;;;;;10.02;6.60;;;;;;;19.81;48.23;98504.19;10285291;28;20034;-21
2022/01/13 21:03:23;;;;;;;8.80;6.15;;;;;;;19.82;48.07;98503.34;10312327;28;20050;-22
2022/01/13 21:08:24;;;;;;;10.03;5.73;;;;;;;19.44;46.79;98499.03;10292856;28;20065;-23
2022/01/13 21:13:24;;;;;;;7.78;6.18;;;;;;;19.21;49.41;98496.75;10287427;28;20668;-21
2022/01/13 21:18:25;;;;;;;9.50;5.80;;;;;;;19.19;49.93;98503.50;10322314;28;20579;-23
2022/01/13 21:23:38;;;;;;;22.45;6.65;;;;;;;19.18;49.84;98506.81;10286600;28;20034;-21
2022/01/13 21:28:39;;;;;;;7.68;5.40;;;;;;;19.17;50.33;98512.72;10287737;28;20537;-21
2022/01/13 21:33:40;;;;;;;10.38;5.78;;;;;;;19.12;50.29;98519.34;10288459;28;20059;-21
2022/01/13 21:38:41;;;;;;;9.43;5.18;;;;;;;18.96;50.60;98496.91;10287274;28;20497;-22
2022/01/13 21:43:41;;;;;;;11.57;5.75;;;;;;;19.05;50.62;98517.47;10327219;28;20045;-21
2022/01/13 21:48:42;;;;;;;7.37;4.83;;;;;;;18.86;50.70;98494.97;10324213;28;20042;-21
2022/01/13 21:53:42;;;;;;;9.50;5.63;;;;;;;18.92;50.51;98505.28;10287033;28;20853;-22
2022/01/13 21:58:44;;;;;;;7.32;5.50;;;;;;;18.98;50.62;98521.53;10287658;28;20113;-21
2022/01/13 22:03:48;;;;;;;7.10;5.00;;;;;;;18.97;50.68;98506.25;10287221;28;20045;-22
2022/01/13 22:13:49;;;;;;;8.87;5.20;;;;;;;18.99;50.62;98510.56;10287434;28;20033;-22
2022/01/13 22:18:50;;;;;;;11.48;5.38;;;;;;;18.92;50.51;98516.28;10286575;28;20070;-22
2022/01/13 22:23:51;;;;;;;7.13;5.07;;;;;;;18.92;50.69;98508.66;10286923;28;20069;-22
2022/01/13 22:28:52;;;;;;;7.07;5.20;;;;;;;18.93;50.70;98509.53;10286847;28;20034;-22
2022/01/13 22:33:52;;;;;;;8.68;5.28;;;;;;;18.94;50.64;98513.78;10287737;28;20035;-22
2022/01/13 22:38:53;;;;;;;7.50;5.13;;;;;;;18.94;50.55;98503.63;10286653;28;20077;-22
2022/01/13 22:43:53;;;;;;;7.72;5.50;;;;;;;18.95;50.41;98510.44;10286820;28;20127;-23
2022/01/13 22:48:53;;;;;;;9.95;5.25;;;;;;;18.95;50.57;98515.50;10286606;28;20038;-21
2022/01/13 22:53:55;;;;;;;6.87;4.67;;;;;;;18.95;50.63;98520.59;10286149;28;20169;-22
2022/01/13 22:58:55;;;;;;;6.35;5.22;;;;;;;18.93;50.65;98512.91;10285738;28;20274;-22
2022/01/13 23:03:55;;;;;;;7.63;5.20;;;;;;;18.92;50.30;98511.19;10285633;28;20038;-22
2022/01/13 23:08:56;;;;;;;7.43;4.82;;;;;;;18.90;50.74;98496.75;10306553;28;20038;-21
2022/01/13 23:13:56;;;;;;;6.93;4.50;;;;;;;18.93;50.65;98505.31;10284545;28;20497;-21
2022/01/13 23:24:15;;;;;;;6.53;5.00;;;;;;;18.90;50.65;98479.84;10285492;28;20039;-21
2022/01/13 23:29:16;;;;;;;7.73;4.43;;;;;;;18.91;50.54;98483.25;10287197;28;20062;-21
2022/01/13 23:34:16;;;;;;;6.87;4.90;;;;;;;18.87;50.68;98471.28;10293733;28;20285;-21
2022/01/13 23:39:16;;;;;;;7.00;4.27;;;;;;;18.87;50.54;98458.59;10292556;28;20019;-21
2022/01/13 23:44:21;;;;;;;8.33;5.20;;;;;;;18.86;50.60;98445.06;10293433;28;20037;-21
2022/01/13 23:49:22;;;;;;;7.88;5.13;;;;;;;18.87;50.68;98441.72;10292281;28;20039;-23
2022/01/13 23:54:23;;;;;;;8.30;4.97;;;;;;;18.89;50.46;98439.19;10292037;28;20069;-22
2022/01/13 23:59:25;;;;;;;7.32;4.45;;;;;;;18.90;50.59;98446.84;10291769;28;20440;-22
